createdAt,value
2023-01-10T00:01:53.028Z,21.60
2023-01-10T00:04:20.997Z,18.30
2023-01-10T00:06:48.985Z,19.23
2023-01-10T00:09:17.364Z,19.63
2023-01-10T00:12:02.649Z,18.30
2023-01-10T00:14:35.004Z,22.55
2023-01-10T00:17:03.660Z,20.77
2023-01-10T00:19:32.299Z,23.13
2023-01-10T00:22:02.756Z,18.65
2023-01-10T00:24:31.298Z,19.60
2023-01-10T00:26:59.815Z,18.73
2023-01-10T00:29:32.003Z,15.90
2023-01-10T00:32:01.454Z,16.17
2023-01-10T00:34:30.254Z,15.43
2023-01-10T00:36:58.234Z,15.48
2023-01-10T00:39:27.475Z,16.27
2023-01-10T00:42:12.667Z,15.43
2023-01-10T00:44:40.543Z,16.00
2023-01-10T00:47:09.980Z,13.90
2023-01-10T00:49:37.934Z,14.35
2023-01-10T00:52:06.334Z,13.57
2023-01-10T00:54:35.352Z,11.95
2023-01-10T00:57:03.539Z,14.27
2023-01-10T00:59:31.536Z,10.50
2023-01-10T01:01:59.587Z,10.40
2023-01-10T01:04:34.186Z,8.73
2023-01-10T01:07:02.825Z,10.35
2023-01-10T01:09:31.432Z,10.10
2023-01-10T01:11:59.479Z,8.30
2023-01-10T01:14:27.494Z,13.85
2023-01-10T01:16:55.732Z,7.35
2023-01-10T01:19:23.929Z,8.38
2023-01-10T01:21:53.778Z,8.32
2023-01-10T01:24:22.762Z,10.80
2023-01-10T01:26:50.633Z,8.23
2023-01-10T01:29:18.893Z,9.30
2023-01-10T01:31:47.659Z,8.77
2023-01-10T01:34:15.739Z,7.03
2023-01-10T01:36:43.744Z,9.32
2023-01-10T01:39:13.100Z,7.57
2023-01-10T01:42:00.190Z,5.57
2023-01-10T01:44:32.914Z,7.53
2023-01-10T01:47:06.858Z,9.48
2023-01-10T01:49:39.769Z,5.30
2023-01-10T01:52:13.439Z,4.80
2023-01-10T01:54:43.778Z,6.20
2023-01-10T01:59:44.379Z,2.92
2023-01-10T02:02:18.208Z,6.55
2023-01-10T02:04:52.443Z,7.00
2023-01-10T02:07:21.921Z,6.72
2023-01-10T02:09:55.880Z,5.60
2023-01-10T02:12:25.733Z,3.40
2023-01-10T02:14:55.164Z,6.68
2023-01-10T02:17:23.368Z,4.05
2023-01-10T02:19:54.946Z,4.78
2023-01-10T02:22:58.268Z,5.32
2023-01-10T02:25:58.721Z,3.65
2023-01-10T02:28:58.332Z,6.43
2023-01-10T02:31:40.993Z,5.57
2023-01-10T02:34:16.026Z,6.53
2023-01-10T02:36:51.996Z,7.55
2023-01-10T02:39:25.380Z,4.55
2023-01-10T02:41:58.478Z,8.00
2023-01-10T02:44:33.722Z,5.32
2023-01-10T02:47:05.600Z,6.50
2023-01-10T02:49:44.482Z,7.28
2023-01-10T02:52:14.594Z,7.57
2023-01-10T02:54:43.236Z,10.80
2023-01-10T02:57:30.208Z,10.10
2023-01-10T03:00:26.247Z,8.32
2023-01-10T03:03:03.009Z,10.85
2023-01-10T03:05:49.274Z,13.18
2023-01-10T03:08:27.625Z,10.52
2023-01-10T03:10:59.490Z,10.73
2023-01-10T03:13:33.851Z,10.77
2023-01-10T03:16:03.818Z,12.60
2023-01-10T03:18:36.043Z,19.55
2023-01-10T03:21:08.743Z,13.73
2023-01-10T03:23:37.481Z,16.52
2023-01-10T03:26:07.885Z,12.52
2023-01-10T03:28:46.163Z,14.93
2023-01-10T03:31:19.334Z,11.55
2023-01-10T03:33:48.926Z,15.40
2023-01-10T03:36:27.008Z,17.02
2023-01-10T03:38:57.247Z,18.95
2023-01-10T03:44:26.657Z,16.52
2023-01-10T03:47:00.377Z,19.13
2023-01-10T03:49:30.676Z,21.08
2023-01-10T03:54:28.189Z,18.03
2023-01-10T03:56:56.237Z,18.48
2023-01-10T03:59:27.782Z,17.75
2023-01-10T04:01:57.078Z,13.40
2023-01-10T04:04:25.146Z,21.17
2023-01-10T04:06:53.165Z,14.32
2023-01-10T04:09:22.927Z,21.50
2023-01-10T04:11:50.883Z,23.58
2023-01-10T04:14:18.939Z,21.05
2023-01-10T04:16:47.016Z,21.13
2023-01-10T04:19:14.855Z,19.05
2023-01-10T04:21:42.785Z,23.08
2023-01-10T04:24:10.989Z,20.08
2023-01-10T04:26:40.420Z,19.95
2023-01-10T04:29:08.510Z,17.67
2023-01-10T04:31:36.546Z,13.82
2023-01-10T04:34:04.576Z,12.00
2023-01-10T04:36:32.503Z,23.23
2023-01-10T04:39:00.828Z,14.98
2023-01-10T04:41:28.897Z,22.10
2023-01-10T04:43:58.100Z,22.77
2023-01-10T04:46:25.889Z,13.13
2023-01-10T04:48:53.893Z,18.48
2023-01-10T04:51:21.670Z,13.95
2023-01-10T04:53:49.440Z,16.55
2023-01-10T04:56:19.303Z,16.08
2023-01-10T04:58:47.882Z,20.27
2023-01-10T05:01:20.987Z,15.98
2023-01-10T05:03:49.997Z,15.32
2023-01-10T05:06:18.111Z,15.82
2023-01-10T05:08:46.304Z,21.85
2023-01-10T05:11:14.502Z,20.95
2023-01-10T05:13:43.704Z,17.80
2023-01-10T05:16:11.615Z,21.40
2023-01-10T05:18:40.933Z,17.48
2023-01-10T05:21:11.139Z,15.53
2023-01-10T05:26:08.474Z,19.42
2023-01-10T05:28:36.471Z,18.05
2023-01-10T05:31:06.600Z,17.90
2023-01-10T05:33:34.504Z,11.15
2023-01-10T05:36:04.683Z,13.07
2023-01-10T05:41:01.687Z,14.77
2023-01-10T05:43:30.038Z,16.77
2023-01-10T05:45:58.182Z,19.65
2023-01-10T05:48:26.048Z,16.35
2023-01-10T05:50:54.264Z,15.90
2023-01-10T05:53:23.492Z,18.55
2023-01-10T05:55:56.075Z,24.92
2023-01-10T05:58:25.065Z,21.17
2023-01-10T06:00:52.991Z,19.58
2023-01-10T06:03:20.996Z,15.93
2023-01-10T06:05:49.311Z,21.80
2023-01-10T06:08:17.362Z,21.63
2023-01-10T06:10:46.930Z,21.17
2023-01-10T06:13:14.967Z,22.00
2023-01-10T06:15:42.975Z,24.40
2023-01-10T06:18:12.370Z,23.20
2023-01-10T06:20:40.532Z,24.45
2023-01-10T06:23:08.628Z,28.58
2023-01-10T06:25:40.536Z,21.33
2023-01-10T06:28:10.848Z,25.38
2023-01-10T06:30:39.274Z,23.73
2023-01-10T06:33:08.673Z,18.10
2023-01-10T06:35:37.417Z,20.20
2023-01-10T06:38:05.777Z,20.10
2023-01-10T06:40:33.750Z,17.10
2023-01-10T06:43:01.719Z,20.48
2023-01-10T06:45:31.338Z,20.20
2023-01-10T06:47:59.360Z,19.00
2023-01-10T06:50:28.283Z,26.42
2023-01-10T06:52:58.052Z,19.45
2023-01-10T06:55:26.221Z,12.07
2023-01-10T06:57:57.965Z,22.15
2023-01-10T07:00:27.383Z,18.95
2023-01-10T07:02:58.753Z,16.08
2023-01-10T07:05:27.142Z,18.13
2023-01-10T07:07:55.051Z,22.88
2023-01-10T07:10:22.919Z,23.88
2023-01-10T07:12:50.922Z,19.35
2023-01-10T07:15:18.849Z,19.85
2023-01-10T07:17:46.774Z,18.45
2023-01-10T07:20:16.484Z,20.17
2023-01-10T07:22:44.339Z,19.10
2023-01-10T07:25:12.221Z,17.52
2023-01-10T07:27:43.346Z,21.92
2023-01-10T07:30:12.408Z,18.35
2023-01-10T07:32:40.305Z,17.67
2023-01-10T07:35:08.696Z,17.48
2023-01-10T07:37:38.096Z,17.58
2023-01-10T07:40:07.125Z,20.13
2023-01-10T07:42:35.200Z,20.20
2023-01-10T07:45:03.222Z,17.90
2023-01-10T07:47:31.287Z,19.88
2023-01-10T07:49:59.159Z,13.55
2023-01-10T07:52:27.576Z,21.70
2023-01-10T07:54:56.734Z,15.18
2023-01-10T07:57:24.633Z,20.15
2023-01-10T07:59:52.452Z,14.80
2023-01-10T08:02:20.721Z,17.98
2023-01-10T08:04:48.647Z,22.02
2023-01-10T08:07:16.485Z,17.45
2023-01-10T08:09:44.450Z,22.85
2023-01-10T08:12:13.743Z,19.92
2023-01-10T08:14:41.661Z,20.00
2023-01-10T08:17:10.069Z,20.23
2023-01-10T08:19:37.858Z,24.35
2023-01-10T08:22:05.991Z,22.15
2023-01-10T08:24:33.898Z,25.48
2023-01-10T08:27:01.870Z,28.27
2023-01-10T08:29:31.184Z,19.55
2023-01-10T08:31:59.053Z,27.80
2023-01-10T08:34:27.614Z,27.00
2023-01-10T08:36:55.903Z,22.83
2023-01-10T08:39:26.577Z,23.92
2023-01-10T08:41:54.746Z,27.33
2023-01-10T08:44:22.511Z,20.50
2023-01-10T08:46:51.783Z,18.73
2023-01-10T08:49:19.677Z,23.80
2023-01-10T08:51:47.680Z,25.55
2023-01-10T08:54:15.961Z,20.67
2023-01-10T08:56:43.964Z,21.60
2023-01-10T08:59:11.829Z,20.08
2023-01-10T09:01:39.904Z,19.05
2023-01-10T09:04:09.654Z,19.02
2023-01-10T09:06:38.015Z,18.10
2023-01-10T09:09:06.176Z,22.38
2023-01-10T09:11:34.246Z,21.23
2023-01-10T09:14:02.409Z,20.45
2023-01-10T09:16:30.523Z,23.33
2023-01-10T09:18:58.637Z,25.10
2023-01-10T09:21:28.814Z,19.40
2023-01-10T09:23:56.668Z,21.65
2023-01-10T09:26:24.588Z,29.13
2023-01-10T09:28:52.391Z,25.85
2023-01-10T09:31:20.347Z,28.38
2023-01-10T09:33:49.778Z,18.83
2023-01-10T09:36:17.832Z,22.25
2023-01-10T09:38:47.203Z,21.73
2023-01-10T09:41:50.553Z,22.03
2023-01-10T09:44:22.392Z,20.83
2023-01-10T09:46:58.909Z,17.58
2023-01-10T09:49:40.513Z,20.23
2023-01-10T09:52:20.154Z,17.95
2023-01-10T09:54:51.323Z,28.25
2023-01-10T09:57:21.712Z,30.02
2023-01-10T09:59:51.588Z,20.05
2023-01-10T10:02:27.470Z,22.67
2023-01-10T10:05:08.560Z,24.67
2023-01-10T10:07:37.069Z,22.77
2023-01-10T10:10:09.577Z,22.20
2023-01-10T10:12:49.120Z,28.00
2023-01-10T10:15:25.319Z,24.35
2023-01-10T10:18:04.116Z,22.42
2023-01-10T10:20:51.565Z,21.50
2023-01-10T10:23:35.650Z,23.30
2023-01-10T10:26:12.061Z,25.00
2023-01-10T10:28:59.022Z,22.92
2023-01-10T10:31:42.045Z,20.75
2023-01-10T10:34:17.854Z,20.63
2023-01-10T10:36:50.292Z,20.27
2023-01-10T10:39:22.419Z,26.48
2023-01-10T10:41:54.607Z,25.17
2023-01-10T10:44:34.067Z,22.70
2023-01-10T10:47:02.559Z,28.93
2023-01-10T10:49:38.788Z,20.75
2023-01-10T10:52:15.921Z,20.70
2023-01-10T10:54:45.795Z,20.27
2023-01-10T10:57:17.209Z,19.58
2023-01-10T11:02:24.298Z,21.95
2023-01-10T11:04:54.614Z,24.95
2023-01-10T11:09:56.247Z,26.83
2023-01-10T11:12:33.212Z,30.75
2023-01-10T11:15:01.900Z,24.42
2023-01-10T11:17:33.847Z,21.63
2023-01-10T11:20:04.507Z,27.48
2023-01-10T11:22:39.535Z,28.50
2023-01-10T11:25:16.961Z,29.25
2023-01-10T11:27:50.657Z,22.67
2023-01-10T11:30:21.993Z,20.45
2023-01-10T11:32:54.357Z,23.98
2023-01-10T11:35:27.214Z,25.05
2023-01-10T11:38:03.508Z,20.70
2023-01-10T11:40:32.390Z,18.13
2023-01-10T11:43:22.010Z,27.48
2023-01-10T11:45:56.023Z,20.83
2023-01-10T11:48:48.237Z,23.42
2023-01-10T11:51:24.529Z,31.70
2023-01-10T11:54:00.217Z,24.42
2023-01-10T11:56:31.319Z,27.88
2023-01-10T11:59:09.408Z,21.65
2023-01-10T12:01:42.118Z,23.83
2023-01-10T12:04:15.645Z,22.75
2023-01-10T12:06:45.793Z,21.40
2023-01-10T12:09:35.463Z,16.92
2023-01-10T12:12:05.366Z,20.48
2023-01-10T12:14:34.630Z,24.88
2023-01-10T12:17:05.057Z,18.90
2023-01-10T12:19:33.160Z,20.75
2023-01-10T12:22:09.037Z,26.38
2023-01-10T12:24:42.069Z,21.75
2023-01-10T12:27:13.822Z,17.40
2023-01-10T12:29:46.967Z,23.15
2023-01-10T12:32:21.413Z,21.63
2023-01-10T12:34:58.444Z,18.55
2023-01-10T12:37:35.844Z,16.77
2023-01-10T12:40:12.611Z,26.85
2023-01-10T12:43:09.980Z,27.35
2023-01-10T12:45:46.207Z,21.17
2023-01-10T12:48:23.254Z,19.55
2023-01-10T12:50:58.898Z,19.88
2023-01-10T12:53:34.816Z,19.58
2023-01-10T12:56:06.405Z,23.25
2023-01-10T12:58:42.959Z,20.85
2023-01-10T13:01:17.074Z,23.30
2023-01-10T13:03:46.620Z,18.55
2023-01-10T13:06:21.756Z,19.80
2023-01-10T13:08:50.691Z,16.60
2023-01-10T13:11:23.721Z,15.45
2023-01-10T13:13:57.905Z,20.83
2023-01-10T13:16:36.422Z,18.90
2023-01-10T13:19:24.616Z,21.15
2023-01-10T13:22:20.195Z,21.80
2023-01-10T13:24:59.289Z,19.88
2023-01-10T13:27:31.743Z,23.25
2023-01-10T13:29:59.925Z,22.55
2023-01-10T13:32:31.821Z,24.77
2023-01-10T13:35:13.942Z,19.05
2023-01-10T13:37:44.247Z,15.65
2023-01-10T13:43:34.383Z,19.52
2023-01-10T13:46:36.237Z,16.45
2023-01-10T13:49:37.650Z,17.52
2023-01-10T13:52:40.472Z,18.55
2023-01-10T13:55:32.927Z,10.23
2023-01-10T13:58:02.484Z,18.38
2023-01-10T14:01:07.447Z,20.83
2023-01-10T14:03:54.233Z,19.20
2023-01-10T14:06:42.434Z,18.27
2023-01-10T14:09:36.800Z,13.32
2023-01-10T14:12:07.007Z,19.95
2023-01-10T14:17:16.318Z,14.70
2023-01-10T14:19:47.120Z,16.95
2023-01-10T14:22:29.328Z,15.85
2023-01-10T14:25:00.373Z,19.38
2023-01-10T14:27:37.441Z,17.83
2023-01-10T14:30:07.847Z,20.90
2023-01-10T14:35:09.644Z,14.75
2023-01-10T14:37:42.370Z,18.83
2023-01-10T14:40:20.935Z,16.85
2023-01-10T14:42:50.735Z,9.68
2023-01-10T14:45:27.184Z,11.30
2023-01-10T14:47:55.176Z,11.35
2023-01-10T14:50:30.037Z,16.30
2023-01-10T14:52:58.163Z,11.65
2023-01-10T14:55:28.077Z,13.63
2023-01-10T14:57:57.474Z,14.95
2023-01-10T15:00:29.242Z,15.07
2023-01-10T15:02:58.895Z,13.15
2023-01-10T15:05:28.659Z,15.93
2023-01-10T15:08:15.155Z,12.18
2023-01-10T15:10:47.131Z,14.43
2023-01-10T15:13:18.101Z,14.38
2023-01-10T15:15:49.193Z,8.75
2023-01-10T15:18:33.285Z,14.68
2023-01-10T15:21:02.141Z,11.90
2023-01-10T15:23:35.908Z,18.55
2023-01-10T15:26:09.883Z,13.50
2023-01-10T15:28:38.681Z,13.95
2023-01-10T15:31:08.613Z,17.70
2023-01-10T15:33:38.821Z,13.55
2023-01-10T15:36:12.133Z,11.90
2023-01-10T15:38:45.290Z,10.32
2023-01-10T15:41:20.466Z,10.95
2023-01-10T15:43:50.135Z,11.57
2023-01-10T15:46:21.007Z,12.63
2023-01-10T15:48:59.029Z,11.50
2023-01-10T15:51:30.294Z,10.73
2023-01-10T15:54:04.251Z,13.82
2023-01-10T15:56:40.496Z,12.35
2023-01-10T15:59:23.495Z,12.07
2023-01-10T16:01:55.563Z,11.75
2023-01-10T16:04:24.512Z,10.65
2023-01-10T16:06:56.013Z,10.43
2023-01-10T16:09:24.355Z,11.32
2023-01-10T16:12:11.973Z,11.35
2023-01-10T16:14:39.847Z,9.13
2023-01-10T16:17:08.093Z,17.30
2023-01-10T16:19:36.034Z,13.30
2023-01-10T16:22:03.985Z,12.35
2023-01-10T16:24:34.459Z,10.98
2023-01-10T16:27:06.673Z,10.38
2023-01-10T16:29:35.160Z,14.65
2023-01-10T16:32:03.076Z,14.40
2023-01-10T16:34:34.119Z,21.23
2023-01-10T16:37:02.291Z,13.85
2023-01-10T16:39:30.171Z,12.98
2023-01-10T16:42:15.446Z,13.80
2023-01-10T16:44:45.436Z,14.77
2023-01-10T16:47:13.237Z,14.60
2023-01-10T16:49:42.146Z,11.85
2023-01-10T16:52:14.007Z,12.73
2023-01-10T16:54:42.107Z,11.52
2023-01-10T16:57:12.181Z,17.10
2023-01-10T16:59:40.259Z,10.88
2023-01-10T17:02:17.730Z,12.45
2023-01-10T17:04:45.782Z,11.68
2023-01-10T17:07:13.860Z,14.57
2023-01-10T17:09:41.790Z,14.65
2023-01-10T17:12:16.315Z,12.38
2023-01-10T17:14:44.300Z,13.88
2023-01-10T17:17:14.074Z,10.55
2023-01-10T17:19:42.795Z,10.27
2023-01-10T17:22:10.783Z,10.20
2023-01-10T17:24:38.675Z,17.30
2023-01-10T17:27:06.556Z,14.35
2023-01-10T17:29:35.433Z,8.60
2023-01-10T17:32:03.662Z,13.60
2023-01-10T17:34:37.247Z,9.18
2023-01-10T17:37:05.949Z,11.13
2023-01-10T17:39:34.496Z,15.60
2023-01-10T17:42:02.574Z,18.27
2023-01-10T17:44:30.831Z,10.95
2023-01-10T17:46:59.191Z,9.18
2023-01-10T17:49:27.278Z,11.85
2023-01-10T17:51:58.742Z,8.15
2023-01-10T17:54:27.231Z,13.32
2023-01-10T17:56:55.248Z,16.10
2023-01-10T17:59:23.686Z,13.18
2023-01-10T18:01:52.028Z,10.23
2023-01-10T18:04:20.061Z,13.13
2023-01-10T18:06:48.258Z,11.63
2023-01-10T18:09:17.615Z,15.40
2023-01-10T18:11:46.327Z,13.77
2023-01-10T18:14:31.566Z,13.02
2023-01-10T18:16:59.561Z,12.98
2023-01-10T18:19:27.728Z,14.00
2023-01-10T18:21:55.774Z,16.17
2023-01-10T18:24:24.999Z,14.98
2023-01-10T18:26:52.928Z,20.42
2023-01-10T18:29:21.108Z,16.50
2023-01-10T18:31:49.177Z,12.32
2023-01-10T18:34:17.036Z,12.55
2023-01-10T18:36:44.995Z,14.40
2023-01-10T18:39:12.909Z,16.95
2023-01-10T18:41:42.442Z,12.02
2023-01-10T18:44:10.271Z,14.73
2023-01-10T18:46:38.515Z,11.57
2023-01-10T18:49:08.316Z,18.38
2023-01-10T18:51:36.249Z,12.93
2023-01-10T18:54:04.363Z,12.57
2023-01-10T18:56:32.212Z,15.70
2023-01-10T18:59:01.594Z,12.25
2023-01-10T19:01:29.809Z,11.30
2023-01-10T19:03:58.590Z,12.98
2023-01-10T19:06:26.625Z,15.43
2023-01-10T19:08:55.268Z,21.33
2023-01-10T19:11:23.181Z,20.10
2023-01-10T19:13:53.911Z,20.70
2023-01-10T19:16:26.129Z,18.13
2023-01-10T19:18:56.528Z,16.52
2023-01-10T19:21:25.517Z,15.73
2023-01-10T19:23:56.566Z,15.98
2023-01-10T19:26:25.751Z,12.10
2023-01-10T19:28:53.760Z,13.68
2023-01-10T19:31:24.250Z,18.10
2023-01-10T19:33:52.465Z,16.48
2023-01-10T19:36:23.649Z,13.90
2023-01-10T19:38:55.944Z,11.88
2023-01-10T19:41:24.090Z,12.13
2023-01-10T19:43:56.997Z,24.65
2023-01-10T19:46:26.829Z,12.00
2023-01-10T19:48:56.918Z,18.33
2023-01-10T19:51:25.139Z,16.90
2023-01-10T19:53:52.996Z,13.48
2023-01-10T19:56:22.867Z,22.20
2023-01-10T19:58:51.197Z,22.52
2023-01-10T20:01:21.855Z,19.88
2023-01-10T20:03:51.226Z,22.20
2023-01-10T20:06:21.708Z,14.83
2023-01-10T20:08:50.172Z,14.45
2023-01-10T20:11:19.052Z,21.05
2023-01-10T20:13:48.330Z,17.90
2023-01-10T20:16:18.174Z,22.07
2023-01-10T20:18:46.655Z,25.50
2023-01-10T20:21:17.982Z,17.38
2023-01-10T20:23:45.975Z,15.88
2023-01-10T20:26:15.889Z,16.67
2023-01-10T20:28:45.091Z,10.75
2023-01-10T20:31:16.779Z,18.88
2023-01-10T20:33:44.909Z,12.38
2023-01-10T20:36:17.295Z,15.88
2023-01-10T20:38:45.238Z,13.93
2023-01-10T20:41:15.911Z,13.90
2023-01-10T20:43:45.519Z,22.67
2023-01-10T20:46:14.959Z,16.23
2023-01-10T20:48:43.762Z,17.70
2023-01-10T20:51:13.275Z,13.13
2023-01-10T20:53:42.847Z,18.38
2023-01-10T20:56:13.278Z,12.75
2023-01-10T20:58:41.410Z,14.95
2023-01-10T21:01:12.412Z,19.70
2023-01-10T21:03:41.993Z,8.23
2023-01-10T21:06:11.162Z,14.15
2023-01-10T21:08:39.399Z,13.25
2023-01-10T21:11:09.850Z,9.93
2023-01-10T21:13:37.726Z,14.02
2023-01-10T21:16:07.060Z,14.60
2023-01-10T21:18:40.909Z,8.03
2023-01-10T21:21:09.989Z,9.07
2023-01-10T21:23:38.372Z,6.53
2023-01-10T21:26:09.318Z,8.18
2023-01-10T21:28:39.544Z,6.72
2023-01-10T21:33:36.050Z,11.38
2023-01-10T21:36:03.978Z,11.73
2023-01-10T21:38:32.856Z,8.35
2023-01-10T21:41:07.430Z,11.50
2023-01-10T21:43:37.709Z,11.68
2023-01-10T21:48:33.914Z,7.35
2023-01-10T21:51:01.751Z,6.00
2023-01-10T21:53:29.830Z,6.75
2023-01-10T21:55:59.783Z,8.27
2023-01-10T21:58:27.847Z,6.05
2023-01-10T22:00:59.223Z,9.10
2023-01-10T22:03:27.620Z,7.43
2023-01-10T22:05:55.821Z,7.97
2023-01-10T22:08:24.137Z,5.78
2023-01-10T22:10:52.057Z,6.95
2023-01-10T22:13:20.036Z,6.10
2023-01-10T22:15:48.902Z,5.85
2023-01-10T22:18:18.166Z,5.10
2023-01-10T22:20:46.197Z,5.73
2023-01-10T22:23:14.065Z,5.43
2023-01-10T22:25:41.979Z,7.57
2023-01-10T22:28:09.813Z,4.07
2023-01-10T22:30:37.603Z,4.68
2023-01-10T22:33:05.539Z,5.20
2023-01-10T22:35:34.933Z,4.38
2023-01-10T22:38:02.902Z,2.47
2023-01-10T22:40:30.699Z,6.35
2023-01-10T22:42:58.543Z,10.15
2023-01-10T22:45:26.641Z,5.35
2023-01-10T22:47:54.532Z,4.00
2023-01-10T22:50:22.430Z,5.75
2023-01-10T22:52:52.163Z,3.50
2023-01-10T22:55:20.058Z,3.80
2023-01-10T22:57:48.044Z,3.55
2023-01-10T23:00:16.899Z,4.88
2023-01-10T23:02:44.774Z,4.70
2023-01-10T23:05:12.731Z,5.68
2023-01-10T23:07:40.707Z,4.28
2023-01-10T23:10:28.287Z,3.85
2023-01-10T23:12:57.692Z,4.55
2023-01-10T23:15:26.111Z,3.65
2023-01-10T23:17:54.010Z,3.60
2023-01-10T23:20:22.074Z,4.40
2023-01-10T23:22:50.018Z,1.65
2023-01-10T23:25:19.222Z,3.45
2023-01-10T23:27:47.095Z,4.03
2023-01-10T23:30:15.400Z,3.20
2023-01-10T23:32:43.513Z,3.85
2023-01-10T23:35:11.817Z,2.78
2023-01-10T23:37:39.748Z,4.00
2023-01-10T23:40:08.684Z,2.75
2023-01-10T23:42:37.980Z,3.17
2023-01-10T23:45:07.349Z,2.50
2023-01-10T23:47:35.198Z,3.25
2023-01-10T23:50:03.108Z,3.30
2023-01-10T23:52:30.936Z,2.40
2023-01-10T23:54:58.773Z,5.47
2023-01-10T23:57:26.610Z,3.88
2023-01-10T23:59:56.122Z,3.60
